Time;durP1;ratioP1;P1;durP2;ratioP2;P2;SDS_P1;SDS_P2;PMS_P1;PMS_P2;Temp;Humidity;BMP_temperature;BMP_pressure;BME280_temperature;BME280_humidity;BME280_pressure;Samples;Min_cycle;Max_cycle;Signal;HPM_P1;HPM_P2
2021/11/21 08:05:19;;;;;;;6.40;4.30;;;;;;;;;;5504994;23;20063;-81
2021/11/21 10:55:36;;;;;;;4.80;4.40;;;;;;;;;;4886040;29;20041;-86
2021/11/21 10:58:16;;;;;;;4.70;4.30;;;;;;;;;;4866192;29;20388;-91
2021/11/21 11:00:43;;;;;;;5.07;4.57;;;;;;;;;;4881743;29;20077;-84
2021/11/21 11:03:20;;;;;;;5.60;4.97;;;;;;;;;;4882906;29;20033;-94
2021/11/21 11:05:46;;;;;;;4.30;4.00;;;;;;;;;;4881781;29;20507;-89
2021/11/21 11:08:23;;;;;;;5.50;4.65;;;;;;;;;;4881974;29;20161;-89
2021/11/21 11:10:49;;;;;;;5.78;4.97;;;;;;;;;;4882396;29;20025;-89
2021/11/21 11:13:15;;;;;;;5.78;5.15;;;;;;;;;;4882038;29;20531;-88
2021/11/21 11:15:42;;;;;;;5.70;4.90;;;;;;;;;;4865451;29;20451;-92
2021/11/21 11:18:12;;;;;;;5.80;5.20;;;;;;;;;;4881937;29;20117;-88
2021/11/21 11:20:46;;;;;;;4.85;4.45;;;;;;;;;;4865372;29;20029;-88
2021/11/21 11:23:19;;;;;;;4.93;4.30;;;;;;;;;;4881952;29;20036;-87
2021/11/21 11:25:45;;;;;;;4.70;4.30;;;;;;;;;;4881918;29;20108;-87
2021/11/21 11:28:19;;;;;;;5.30;4.18;;;;;;;;;;4881927;29;20480;-89
2021/11/21 11:30:45;;;;;;;4.43;3.97;;;;;;;;;;4881468;29;20025;-81
2021/11/21 11:33:14;;;;;;;4.88;4.40;;;;;;;;;;4881790;29;20033;-78
2021/11/21 11:35:41;;;;;;;;;;;;;;;;;;4882103;29;20050;-78
2021/11/21 11:38:28;;;;;;;4.68;4.28;;;;;;;;;;4881926;29;19920;-77
2021/11/21 11:40:54;;;;;;;5.03;4.53;;;;;;;;;;4881380;29;20552;-75
2021/11/21 11:43:23;;;;;;;4.85;4.28;;;;;;;;;;4881589;29;20073;-74
2021/11/21 11:45:51;;;;;;;6.18;4.53;;;;;;;;;;4881793;29;20021;-81
2021/11/21 11:48:32;;;;;;;5.22;4.72;;;;;;;;;;4881385;29;20510;-78
2021/11/21 11:51:00;;;;;;;9.88;8.63;;;;;;;;;;4881267;29;20037;-78
2021/11/21 11:53:37;;;;;;;10.88;9.10;;;;;;;;;;4881258;29;20024;-81
2021/11/21 11:56:24;;;;;;;15.18;12.68;;;;;;;;;;4881017;29;20049;-78
2021/11/21 11:58:55;;;;;;;17.77;13.65;;;;;;;;;;4881349;29;20021;-89
2021/11/21 12:01:53;;;;;;;17.20;14.20;;;;;;;;;;4881231;29;20036;-93
2021/11/21 12:04:22;;;;;;;17.10;13.65;;;;;;;;;;4856949;29;20437;-84
2021/11/21 12:06:49;;;;;;;17.52;14.30;;;;;;;;;;4881597;29;20040;-84
2021/11/21 12:09:25;;;;;;;18.52;14.85;;;;;;;;;;4881651;29;20036;-80
2021/11/21 12:11:57;;;;;;;19.80;15.80;;;;;;;;;;4880751;29;20025;-81
2021/11/21 12:14:29;;;;;;;21.85;16.70;;;;;;;;;;4881027;29;20051;-85
2021/11/21 12:17:00;;;;;;;20.67;15.15;;;;;;;;;;4880847;29;20480;-77
2021/11/21 12:19:44;;;;;;;25.33;16.63;;;;;;;;;;4881093;29;20378;-81
2021/11/21 12:24:52;;;;;;;24.67;17.33;;;;;;;;;;4880643;29;20074;-76
2021/11/21 12:27:26;;;;;;;25.05;18.58;;;;;;;;;;4880869;29;20429;-76
2021/11/21 12:30:08;;;;;;;28.67;17.90;;;;;;;;;;4880712;29;20066;-76
2021/11/21 12:32:45;;;;;;;27.02;18.10;;;;;;;;;;4880504;29;20488;-76
2021/11/21 12:35:45;;;;;;;26.70;18.80;;;;;;;;;;4880564;29;20040;-83
2021/11/21 12:38:20;;;;;;;28.80;17.73;;;;;;;;;;4880170;29;20049;-76
2021/11/21 12:40:47;;;;;;;23.65;16.80;;;;;;;;;;4880471;29;20065;-76
2021/11/21 12:43:16;;;;;;;29.70;18.50;;;;;;;;;;4880359;29;20496;-80
2021/11/21 12:45:49;;;;;;;26.52;18.15;;;;;;;;;;4880393;29;20036;-77
2021/11/21 12:48:22;;;;;;;29.63;18.25;;;;;;;;;;4880432;29;20138;-83
2021/11/21 12:50:50;;;;;;;29.35;18.20;;;;;;;;;;4880160;29;20036;-78
2021/11/21 12:53:22;;;;;;;30.05;16.52;;;;;;;;;;4880513;29;20077;-82
2021/11/21 12:56:11;;;;;;;28.98;17.52;;;;;;;;;;4879993;29;20560;-82
2021/11/21 12:58:44;;;;;;;28.88;19.13;;;;;;;;;;4863383;29;20121;-80
2021/11/21 13:01:15;;;;;;;25.75;16.85;;;;;;;;;;4880149;29;20613;-77
2021/11/21 13:03:41;;;;;;;31.20;19.02;;;;;;;;;;4880171;29;20040;-79
2021/11/21 13:06:14;;;;;;;28.73;17.17;;;;;;;;;;4880281;29;20150;-82
2021/11/21 13:08:42;;;;;;;31.58;18.38;;;;;;;;;;4880079;29;20033;-82
2021/11/21 13:11:10;;;;;;;32.60;18.88;;;;;;;;;;4879898;29;20037;-78
2021/11/21 13:13:39;;;;;;;30.95;18.45;;;;;;;;;;4879987;29;20025;-83
2021/11/21 13:16:14;;;;;;;29.63;18.55;;;;;;;;;;4880306;29;20039;-81
2021/11/21 13:18:41;;;;;;;27.85;17.38;;;;;;;;;;4879899;29;20033;-82
2021/11/21 13:21:18;;;;;;;30.23;16.75;;;;;;;;;;4862935;29;20125;-83
2021/11/21 13:23:44;;;;;;;33.03;17.92;;;;;;;;;;4879126;29;20029;-76
2021/11/21 13:26:10;;;;;;;29.70;17.35;;;;;;;;;;4880136;29;20029;-82
2021/11/21 13:28:49;;;;;;;29.17;19.25;;;;;;;;;;4879653;29;20029;-83
2021/11/21 13:31:28;;;;;;;29.27;17.83;;;;;;;;;;4879798;29;20029;-83
2021/11/21 13:34:04;;;;;;;26.70;18.17;;;;;;;;;;4880135;29;20037;-87
2021/11/21 13:36:44;;;;;;;26.95;16.27;;;;;;;;;;4879755;29;20036;-82
2021/11/21 13:39:32;;;;;;;30.67;18.80;;;;;;;;;;4879817;29;20036;-79
2021/11/21 13:42:09;;;;;;;29.00;19.00;;;;;;;;;;4879798;29;20033;-79
2021/11/21 13:44:38;;;;;;;30.77;19.45;;;;;;;;;;4879838;29;20101;-81
2021/11/21 13:47:28;;;;;;;31.40;19.37;;;;;;;;;;4863310;29;20552;-83
2021/11/21 13:49:54;;;;;;;;;;;;;;;;;;4880120;29;20515;-81
2021/11/21 13:52:22;;;;;;;28.42;18.48;;;;;;;;;;4879752;29;19924;-80
2021/11/21 13:54:50;;;;;;;38.83;21.65;;;;;;;;;;4879436;29;20467;-82
2021/11/21 13:57:29;;;;;;;31.08;19.23;;;;;;;;;;4879661;29;20037;-77
2021/11/21 13:59:57;;;;;;;32.13;19.77;;;;;;;;;;4879499;29;20384;-79
2021/11/21 14:02:37;;;;;;;33.45;20.67;;;;;;;;;;4879555;29;20050;-80
2021/11/21 14:05:06;;;;;;;34.60;21.55;;;;;;;;;;4879308;29;20021;-76
2021/11/21 14:07:31;;;;;;;36.95;20.77;;;;;;;;;;4879714;29;20424;-77
2021/11/21 14:09:57;;;;;;;30.52;18.77;;;;;;;;;;4879529;29;20100;-81
2021/11/21 14:12:25;;;;;;;31.58;19.85;;;;;;;;;;4879323;29;20472;-78
2021/11/21 14:15:16;;;;;;;37.38;21.40;;;;;;;;;;4879590;29;20036;-76
2021/11/21 14:17:52;;;;;;;38.25;21.45;;;;;;;;;;4879385;29;20528;-76
2021/11/21 14:20:33;;;;;;;38.30;21.17;;;;;;;;;;4879190;29;20036;-77
2021/11/21 14:23:08;;;;;;;31.65;19.17;;;;;;;;;;4879424;29;20033;-75
2021/11/21 14:25:37;;;;;;;32.30;20.25;;;;;;;;;;4863913;29;20120;-83
2021/11/21 14:28:10;;;;;;;33.40;20.35;;;;;;;;;;4879569;29;20586;-84
2021/11/21 14:30:48;;;;;;;33.75;20.40;;;;;;;;;;4879258;29;20445;-91
2021/11/21 14:33:19;;;;;;;33.65;20.20;;;;;;;;;;4879318;29;20429;-77
2021/11/21 14:35:47;;;;;;;35.15;20.13;;;;;;;;;;4882544;29;20029;-86
2021/11/21 14:38:13;;;;;;;34.90;20.67;;;;;;;;;;4882715;29;20147;-76
2021/11/21 14:40:40;;;;;;;35.60;20.38;;;;;;;;;;4882545;29;20035;-77
2021/11/21 14:43:06;;;;;;;36.05;20.83;;;;;;;;;;4881785;29;20361;-77
2021/11/21 14:45:31;;;;;;;32.75;20.23;;;;;;;;;;4888153;29;20081;-76
2021/11/21 14:47:57;;;;;;;37.25;21.50;;;;;;;;;;4900047;29;20050;-76
2021/11/21 14:50:22;;;;;;;36.53;21.60;;;;;;;;;;4897181;29;20469;-81
2021/11/21 14:52:48;;;;;;;37.20;22.00;;;;;;;;;;4882089;29;20468;-76
2021/11/21 14:55:15;;;;;;;40.90;21.38;;;;;;;;;;4882322;29;20113;-77
2021/11/21 14:57:47;;;;;;;36.53;21.92;;;;;;;;;;4882203;29;20429;-81
2021/11/21 15:00:14;;;;;;;35.47;21.55;;;;;;;;;;4895507;29;20112;-81
2021/11/21 15:02:39;;;;;;;38.25;21.23;;;;;;;;;;4900764;29;20021;-78
2021/11/21 15:05:05;;;;;;;34.95;21.15;;;;;;;;;;4900657;29;20552;-81
2021/11/21 15:07:31;;;;;;;34.05;20.27;;;;;;;;;;4888438;29;20041;-78
2021/11/21 15:09:56;;;;;;;36.10;21.75;;;;;;;;;;4881442;29;20081;-81
2021/11/21 15:12:21;;;;;;;31.42;19.48;;;;;;;;;;4881667;29;20365;-82
2021/11/21 15:14:47;;;;;;;32.85;20.67;;;;;;;;;;4881767;29;20040;-81
2021/11/21 15:17:12;;;;;;;35.20;21.50;;;;;;;;;;4894730;29;20379;-82
2021/11/21 15:19:38;;;;;;;34.13;20.13;;;;;;;;;;4900530;29;20539;-78
2021/11/21 15:22:04;;;;;;;38.75;21.90;;;;;;;;;;4900194;29;20033;-77
2021/11/21 15:24:30;;;;;;;38.47;22.17;;;;;;;;;;4900188;29;20115;-81
2021/11/21 15:26:55;;;;;;;33.80;22.42;;;;;;;;;;4900639;29;20115;-83
2021/11/21 15:29:21;;;;;;;39.90;22.50;;;;;;;;;;4898815;29;20056;-82
2021/11/21 15:31:47;;;;;;;36.47;21.60;;;;;;;;;;4870145;29;20052;-75
2021/11/21 15:34:14;;;;;;;40.88;21.95;;;;;;;;;;4864425;29;20036;-75
2021/11/21 15:36:40;;;;;;;45.63;23.65;;;;;;;;;;4877631;29;20037;-75
2021/11/21 15:39:06;;;;;;;43.05;23.48;;;;;;;;;;4881033;29;20092;-76
2021/11/21 15:41:31;;;;;;;41.70;24.13;;;;;;;;;;4881123;29;20029;-74
2021/11/21 15:43:59;;;;;;;38.55;21.15;;;;;;;;;;4880591;29;20366;-77
2021/11/21 15:46:25;;;;;;;34.97;21.65;;;;;;;;;;4880293;29;20060;-75
2021/11/21 15:48:51;;;;;;;39.22;23.10;;;;;;;;;;4880580;29;20025;-85
2021/11/21 15:51:17;;;;;;;34.42;21.33;;;;;;;;;;4880263;29;20131;-75
2021/11/21 15:53:42;;;;;;;36.22;21.08;;;;;;;;;;4863812;29;20065;-76
2021/11/21 15:56:10;;;;;;;39.42;22.85;;;;;;;;;;4881749;29;20081;-74
2021/11/21 15:58:37;;;;;;;43.80;24.75;;;;;;;;;;4865174;29;20025;-75
2021/11/21 16:01:02;;;;;;;36.35;21.75;;;;;;;;;;4880570;29;20033;-74
2021/11/21 16:03:28;;;;;;;42.85;25.27;;;;;;;;;;4880596;29;20025;-75
2021/11/21 16:05:54;;;;;;;41.97;23.40;;;;;;;;;;4880245;29;20057;-74
2021/11/21 16:08:19;;;;;;;44.25;24.63;;;;;;;;;;4880556;29;20033;-75
2021/11/21 16:10:46;;;;;;;38.67;22.40;;;;;;;;;;4880212;29;20049;-74
2021/11/21 16:13:12;;;;;;;41.08;22.80;;;;;;;;;;4876839;29;20072;-75
2021/11/21 16:15:38;;;;;;;43.30;23.25;;;;;;;;;;4867638;29;20038;-75
2021/11/21 16:18:03;;;;;;;44.72;25.20;;;;;;;;;;4852163;29;20075;-74
2021/11/21 16:20:29;;;;;;;43.67;25.10;;;;;;;;;;4878458;29;20123;-74
2021/11/21 16:22:54;;;;;;;42.30;22.45;;;;;;;;;;4879394;29;20037;-74
2021/11/21 16:25:21;;;;;;;42.58;23.17;;;;;;;;;;4880094;29;20036;-73
2021/11/21 16:27:48;;;;;;;45.53;24.23;;;;;;;;;;4879951;29;20033;-76
2021/11/21 16:30:16;;;;;;;38.80;23.70;;;;;;;;;;4880013;29;20039;-74
2021/11/21 16:32:41;;;;;;;44.63;22.83;;;;;;;;;;4880048;29;20037;-74
2021/11/21 16:35:08;;;;;;;44.63;23.67;;;;;;;;;;4879668;29;20120;-75
2021/11/21 16:37:34;;;;;;;33.95;20.73;;;;;;;;;;4874929;29;20025;-75
2021/11/21 16:40:26;;;;;;;40.05;22.27;;;;;;;;;;4864352;29;20029;-75
2021/11/21 16:42:51;;;;;;;38.92;22.38;;;;;;;;;;4872669;29;20484;-78
2021/11/21 16:45:18;;;;;;;38.92;22.77;;;;;;;;;;4879740;29;20036;-76
2021/11/21 16:47:43;;;;;;;39.90;22.77;;;;;;;;;;4879476;29;20033;-77
2021/11/21 16:50:11;;;;;;;41.72;24.48;;;;;;;;;;4879387;29;20040;-79
2021/11/21 16:52:38;;;;;;;44.65;25.45;;;;;;;;;;4862830;29;20075;-75
2021/11/21 16:55:04;;;;;;;45.28;24.85;;;;;;;;;;4879190;29;20041;-76
2021/11/21 16:57:30;;;;;;;40.40;24.17;;;;;;;;;;4878748;29;20112;-76
2021/11/21 16:59:55;;;;;;;41.25;24.48;;;;;;;;;;4879361;29;20116;-77
2021/11/21 17:02:21;;;;;;;40.65;24.70;;;;;;;;;;4869423;29;20029;-80
2021/11/21 17:04:47;;;;;;;43.92;24.25;;;;;;;;;;4870016;29;20497;-78
2021/11/21 17:07:13;;;;;;;50.85;25.38;;;;;;;;;;4879375;29;20043;-77
2021/11/21 17:09:38;;;;;;;45.58;24.27;;;;;;;;;;4879347;29;20116;-77
2021/11/21 17:12:04;;;;;;;44.22;25.15;;;;;;;;;;4862549;29;20058;-77
2021/11/21 17:14:30;;;;;;;42.60;22.65;;;;;;;;;;4879322;29;20060;-78
2021/11/21 17:16:57;;;;;;;40.83;23.75;;;;;;;;;;4879306;29;20036;-78
2021/11/21 17:19:23;;;;;;;39.72;22.85;;;;;;;;;;4862777;29;20499;-76
2021/11/21 17:21:50;;;;;;;45.42;25.33;;;;;;;;;;4862446;29;20071;-77
2021/11/21 17:24:16;;;;;;;47.00;25.67;;;;;;;;;;4879335;29;20108;-77
2021/11/21 17:26:43;;;;;;;45.67;25.05;;;;;;;;;;4879211;29;20109;-77
2021/11/21 17:29:09;;;;;;;49.00;26.40;;;;;;;;;;4879034;29;20496;-77
2021/11/21 17:31:38;;;;;;;45.08;25.80;;;;;;;;;;4879229;29;20101;-78
2021/11/21 17:34:04;;;;;;;44.97;23.70;;;;;;;;;;4873723;29;20029;-77
2021/11/21 17:36:31;;;;;;;43.83;24.08;;;;;;;;;;4866810;29;20034;-80
2021/11/21 17:38:56;;;;;;;43.78;24.25;;;;;;;;;;4878457;29;20413;-78
2021/11/21 17:41:22;;;;;;;42.22;24.02;;;;;;;;;;4878892;29;20121;-76
2021/11/21 17:43:47;;;;;;;44.20;25.05;;;;;;;;;;4879090;29;20370;-78
2021/11/21 17:46:12;;;;;;;50.47;27.02;;;;;;;;;;4879088;29;20088;-77
2021/11/21 17:48:38;;;;;;;49.03;25.35;;;;;;;;;;4878977;29;20033;-78
2021/11/21 17:51:05;;;;;;;49.47;26.02;;;;;;;;;;4878461;29;20033;-78
2021/11/21 17:53:31;;;;;;;62.08;28.77;;;;;;;;;;4877086;29;20029;-81
2021/11/21 17:56:01;;;;;;;55.05;28.25;;;;;;;;;;4847176;29;20459;-82
2021/11/21 17:58:28;;;;;;;57.15;29.55;;;;;;;;;;4862683;29;20048;-86
2021/11/21 18:00:54;;;;;;;50.67;27.63;;;;;;;;;;4874263;29;20021;-79
2021/11/21 18:03:20;;;;;;;60.67;28.95;;;;;;;;;;4878031;29;20540;-79
2021/11/21 18:05:45;;;;;;;57.38;28.00;;;;;;;;;;4870572;29;20086;-86
2021/11/21 18:08:11;;;;;;;58.45;28.85;;;;;;;;;;4869428;29;20079;-77
2021/11/21 18:10:38;;;;;;;58.63;26.85;;;;;;;;;;4881522;29;20500;-77
2021/11/21 18:13:04;;;;;;;59.03;28.70;;;;;;;;;;4880874;29;20037;-79
2021/11/21 18:15:29;;;;;;;47.85;26.13;;;;;;;;;;4881998;29;20033;-78
2021/11/21 18:17:57;;;;;;;56.17;26.02;;;;;;;;;;4878744;29;20033;-83
2021/11/21 18:20:23;;;;;;;58.03;27.42;;;;;;;;;;4882283;29;20033;-81
2021/11/21 18:22:49;;;;;;;60.95;28.45;;;;;;;;;;4882359;29;20029;-79
2021/11/21 18:25:16;;;;;;;63.45;29.42;;;;;;;;;;4882078;29;20117;-77
2021/11/21 18:27:41;;;;;;;58.58;27.88;;;;;;;;;;4881984;29;20032;-77
2021/11/21 18:30:07;;;;;;;64.72;28.13;;;;;;;;;;4882037;29;20029;-82
2021/11/21 18:32:33;;;;;;;63.17;29.08;;;;;;;;;;4882132;29;20029;-79
2021/11/21 18:34:59;;;;;;;60.95;27.02;;;;;;;;;;4882030;29;20165;-83
2021/11/21 18:37:25;;;;;;;64.57;28.42;;;;;;;;;;4882671;29;20108;-79
2021/11/21 18:39:52;;;;;;;63.53;29.83;;;;;;;;;;4881642;29;20380;-78
2021/11/21 18:42:17;;;;;;;68.50;29.98;;;;;;;;;;4882369;29;20029;-78
2021/11/21 18:44:46;;;;;;;61.45;26.88;;;;;;;;;;4881849;29;20029;-83
2021/11/21 18:47:13;;;;;;;68.60;30.33;;;;;;;;;;4881912;29;20029;-76
2021/11/21 18:49:39;;;;;;;67.63;28.42;;;;;;;;;;4881176;29;20061;-80
2021/11/21 18:52:05;;;;;;;64.40;29.58;;;;;;;;;;4881569;29;20081;-78
2021/11/21 18:54:30;;;;;;;61.10;28.42;;;;;;;;;;4865082;29;20060;-76
2021/11/21 18:56:57;;;;;;;62.47;27.92;;;;;;;;;;4881406;29;20111;-75
2021/11/21 18:59:25;;;;;;;60.47;27.75;;;;;;;;;;4881684;29;20029;-77
2021/11/21 19:01:56;;;;;;;60.20;27.58;;;;;;;;;;4881072;29;20106;-79
2021/11/21 19:04:22;;;;;;;67.35;28.42;;;;;;;;;;4881520;29;20473;-76
2021/11/21 19:06:48;;;;;;;59.70;28.10;;;;;;;;;;4881241;29;20044;-76
2021/11/21 19:09:15;;;;;;;59.47;25.73;;;;;;;;;;4881579;29;20922;-80
2021/11/21 19:11:41;;;;;;;59.38;28.48;;;;;;;;;;4881091;29;20529;-76
2021/11/21 19:14:06;;;;;;;58.13;28.10;;;;;;;;;;4881241;29;20033;-76
2021/11/21 19:16:32;;;;;;;61.75;28.95;;;;;;;;;;4881239;29;20037;-79
2021/11/21 19:18:58;;;;;;;60.83;28.50;;;;;;;;;;4864371;29;20531;-79
2021/11/21 19:21:24;;;;;;;54.03;27.17;;;;;;;;;;4880145;29;20061;-80
2021/11/21 19:23:50;;;;;;;54.53;28.65;;;;;;;;;;4881349;29;20021;-74
2021/11/21 19:26:16;;;;;;;70.80;29.77;;;;;;;;;;4881675;29;20044;-75
2021/11/21 19:28:42;;;;;;;61.13;27.92;;;;;;;;;;4881359;29;20496;-77
2021/11/21 19:31:07;;;;;;;62.03;28.17;;;;;;;;;;4881206;29;20461;-76
2021/11/21 19:33:33;;;;;;;63.65;28.40;;;;;;;;;;4881481;29;20037;-82
2021/11/21 19:35:58;;;;;;;61.38;27.65;;;;;;;;;;4881702;29;20032;-82
2021/11/21 19:38:29;;;;;;;57.67;26.35;;;;;;;;;;4881231;29;20036;-82
2021/11/21 19:40:58;;;;;;;66.85;28.73;;;;;;;;;;4881637;29;20089;-83
2021/11/21 19:43:24;;;;;;;65.95;26.38;;;;;;;;;;4882074;29;20365;-80
2021/11/21 19:45:50;;;;;;;58.08;26.30;;;;;;;;;;4882546;29;20033;-81
